Time;durP1;ratioP1;P1;durP2;ratioP2;P2;SDS_P1;SDS_P2;PMS_P1;PMS_P2;Temp;Humidity;BMP_temperature;BMP_pressure;BME280_temperature;BME280_humidity;BME280_pressure;Samples;Min_cycle;Max_cycle;Signal;HPM_P1;HPM_P2
2022/03/04 00:00:14;;;;;;;2.80;1.12;;;2.40;99.90;;;;;;4442518;32;20124;-65
2022/03/04 00:02:40;;;;;;;0.73;0.73;;;2.40;99.90;;;;;;4444701;32;20483;-65
2022/03/04 00:05:06;;;;;;;0.40;0.40;;;2.40;99.90;;;;;;4442383;32;20072;-65
2022/03/04 00:07:31;;;;;;;0.60;0.60;;;2.40;99.90;;;;;;4445649;32;20112;-65
2022/03/04 00:09:57;;;;;;;0.30;0.30;;;2.30;99.90;;;;;;4444610;32;20094;-65
2022/03/04 00:12:22;;;;;;;0.52;0.52;;;2.20;99.90;;;;;;4443765;32;20065;-64
2022/03/04 00:14:48;;;;;;;1.85;0.82;;;2.20;99.90;;;;;;4444020;32;20073;-63
2022/03/04 00:17:13;;;;;;;0.60;0.60;;;2.20;99.90;;;;;;4444530;32;20065;-64
2022/03/04 00:19:39;;;;;;;0.60;0.60;;;2.30;99.90;;;;;;4450281;32;20061;-65
2022/03/04 00:22:05;;;;;;;0.80;0.80;;;2.20;99.90;;;;;;4452507;32;20065;-65
2022/03/04 00:24:31;;;;;;;0.75;0.75;;;2.20;99.90;;;;;;4444922;32;20457;-65
2022/03/04 00:26:57;;;;;;;0.75;0.75;;;2.30;99.90;;;;;;4443832;32;20077;-65
2022/03/04 00:29:22;;;;;;;0.50;0.50;;;2.30;99.90;;;;;;4430256;32;20077;-65
2022/03/04 00:31:48;;;;;;;1.30;1.10;;;2.30;99.90;;;;;;4441977;32;20069;-65
2022/03/04 00:34:13;;;;;;;0.80;0.80;;;2.30;99.90;;;;;;4442463;32;20098;-65
2022/03/04 00:36:39;;;;;;;1.52;1.42;;;2.30;99.90;;;;;;4413599;32;20134;-65
2022/03/04 00:39:08;;;;;;;0.90;0.90;;;2.40;99.90;;;;;;4423204;32;20072;-65
2022/03/04 00:41:33;;;;;;;0.50;0.50;;;2.30;99.90;;;;;;4434726;32;20089;-64
2022/03/04 00:43:59;;;;;;;1.45;1.02;;;2.30;99.90;;;;;;4420622;32;20576;-64
2022/03/04 00:46:24;;;;;;;0.60;0.60;;;2.30;99.90;;;;;;4432771;32;20076;-65
2022/03/04 00:48:50;;;;;;;1.58;1.40;;;2.10;99.90;;;;;;4418475;32;20086;-65
2022/03/04 00:51:16;;;;;;;0.75;0.75;;;2.10;99.90;;;;;;4424894;32;20065;-65
2022/03/04 00:53:42;;;;;;;0.90;0.88;;;2.10;99.90;;;;;;4429630;32;20056;-65
2022/03/04 00:56:10;;;;;;;1.15;1.00;;;2.00;99.90;;;;;;4420139;32;20081;-65
2022/03/04 00:58:36;;;;;;;2.25;0.93;;;2.10;99.90;;;;;;4425518;32;20073;-65
2022/03/04 01:01:04;;;;;;;0.55;0.55;;;2.30;99.90;;;;;;4424601;32;20078;-65
2022/03/04 01:03:29;;;;;;;0.50;0.50;;;2.30;99.90;;;;;;4424639;32;20121;-65
2022/03/04 01:05:54;;;;;;;0.95;0.75;;;2.30;99.90;;;;;;4422931;32;20133;-65
2022/03/04 01:08:20;;;;;;;0.52;0.52;;;2.40;99.90;;;;;;4414053;32;20115;-65
2022/03/04 01:10:46;;;;;;;2.37;1.15;;;2.40;99.90;;;;;;4431862;32;20090;-65
2022/03/04 01:13:12;;;;;;;0.70;0.70;;;2.30;99.90;;;;;;4437939;32;20128;-64
2022/03/04 01:15:38;;;;;;;0.70;0.70;;;2.30;99.90;;;;;;4417937;32;20074;-64
2022/03/04 01:18:03;;;;;;;0.60;0.60;;;2.20;99.90;;;;;;4434805;32;20455;-64
2022/03/04 01:20:30;;;;;;;0.65;0.65;;;2.30;99.90;;;;;;4421835;32;20534;-64
2022/03/04 01:22:57;;;;;;;0.60;0.60;;;2.20;99.90;;;;;;4421472;32;20530;-65
2022/03/04 01:25:22;;;;;;;0.40;0.40;;;2.20;99.90;;;;;;4427617;32;20078;-64
2022/03/04 01:27:48;;;;;;;1.05;1.02;;;2.10;99.90;;;;;;4430664;32;20069;-64
2022/03/04 01:30:14;;;;;;;0.70;0.70;;;2.10;99.90;;;;;;4418480;32;20074;-64
2022/03/04 01:32:40;;;;;;;0.52;0.52;;;2.10;99.90;;;;;;4425795;32;20127;-64
2022/03/04 01:35:08;;;;;;;0.40;0.40;;;2.10;99.90;;;;;;4425096;32;20513;-64
2022/03/04 01:37:33;;;;;;;1.12;0.82;;;2.10;99.90;;;;;;4435842;32;20086;-64
2022/03/04 01:39:59;;;;;;;0.50;0.50;;;2.00;99.90;;;;;;4431508;32;20426;-64
2022/03/04 01:42:24;;;;;;;0.60;0.60;;;2.10;99.90;;;;;;4442903;32;20088;-64
2022/03/04 01:44:50;;;;;;;0.70;0.70;;;2.10;99.90;;;;;;4443378;32;20081;-65
2022/03/04 01:47:15;;;;;;;1.52;1.42;;;2.20;99.90;;;;;;4439399;32;20671;-65
2022/03/04 01:49:41;;;;;;;0.45;0.45;;;2.20;99.90;;;;;;4443359;32;20501;-64
2022/03/04 01:52:07;;;;;;;1.27;0.77;;;2.30;99.90;;;;;;4443543;32;20080;-64
2022/03/04 01:54:33;;;;;;;0.60;0.60;;;2.20;99.90;;;;;;4438576;32;20069;-64
2022/03/04 01:56:59;;;;;;;0.98;0.62;;;2.10;99.90;;;;;;4435833;32;20587;-64
2022/03/04 01:59:25;;;;;;;0.52;0.52;;;2.20;99.90;;;;;;4435846;32;20089;-64
2022/03/04 02:01:52;;;;;;;0.60;0.60;;;2.30;99.90;;;;;;4429389;32;20068;-64
2022/03/04 02:04:20;;;;;;;0.50;0.50;;;2.20;99.90;;;;;;4429777;32;20087;-65
2022/03/04 02:06:46;;;;;;;3.15;1.85;;;2.20;99.90;;;;;;4436795;32;20070;-65
2022/03/04 02:09:11;;;;;;;0.62;0.62;;;2.20;99.90;;;;;;4429560;32;20085;-64
2022/03/04 02:11:38;;;;;;;0.80;0.75;;;2.20;99.90;;;;;;4431988;32;20088;-64
2022/03/04 02:14:04;;;;;;;6.43;1.80;;;2.20;99.90;;;;;;4443037;32;20539;-64
2022/03/04 02:16:38;;;;;;;0.65;0.65;;;2.20;99.90;;;;;;4438689;32;20077;-64
2022/03/04 02:19:03;;;;;;;1.48;1.33;;;2.10;99.90;;;;;;4433618;32;20186;-65
2022/03/04 02:21:31;;;;;;;7.05;2.47;;;2.00;99.90;;;;;;4440474;32;20561;-65
2022/03/04 02:23:57;;;;;;;0.43;0.43;;;2.10;99.90;;;;;;4416677;32;20118;-65
2022/03/04 02:26:23;;;;;;;1.20;1.10;;;2.00;99.90;;;;;;4432870;32;20069;-65
2022/03/04 02:28:50;;;;;;;3.12;1.40;;;2.00;99.90;;;;;;4435919;32;20078;-64
2022/03/04 02:31:17;;;;;;;5.05;1.60;;;2.00;99.90;;;;;;4439176;32;20560;-64
2022/03/04 02:33:44;;;;;;;2.20;1.62;;;2.00;99.90;;;;;;4439517;32;20057;-65
2022/03/04 02:36:10;;;;;;;1.58;1.45;;;2.00;99.90;;;;;;4441438;32;20562;-64
2022/03/04 02:38:36;;;;;;;1.00;1.00;;;2.00;99.90;;;;;;4436998;32;20077;-64
2022/03/04 02:41:01;;;;;;;3.37;1.92;;;2.00;99.90;;;;;;4443849;32;20106;-64
2022/03/04 02:43:27;;;;;;;9.50;3.03;;;2.10;99.90;;;;;;4441728;32;20115;-64
2022/03/04 02:45:52;;;;;;;1.75;1.62;;;2.10;99.90;;;;;;4439919;32;20123;-64
2022/03/04 02:48:18;;;;;;;4.25;2.05;;;2.20;99.90;;;;;;4436762;32;20102;-65
2022/03/04 02:50:43;;;;;;;1.25;1.15;;;2.20;99.90;;;;;;4440176;32;20524;-64
2022/03/04 02:53:09;;;;;;;2.97;1.30;;;2.20;99.90;;;;;;4438852;32;20073;-64
2022/03/04 02:55:34;;;;;;;6.82;1.50;;;2.20;99.90;;;;;;4436164;32;20069;-64
2022/03/04 02:58:00;;;;;;;1.40;1.30;;;2.20;99.90;;;;;;4442242;32;20073;-64
2022/03/04 03:00:26;;;;;;;10.15;1.23;;;2.20;99.90;;;;;;4441164;32;20532;-64
2022/03/04 03:02:51;;;;;;;5.68;1.58;;;2.30;99.90;;;;;;4429118;32;20062;-64
2022/03/04 03:05:17;;;;;;;0.68;0.68;;;2.20;99.90;;;;;;4442539;32;20061;-64
2022/03/04 03:07:42;;;;;;;0.60;0.60;;;2.20;99.90;;;;;;4437863;32;20101;-64
2022/03/04 03:10:09;;;;;;;3.35;1.00;;;2.30;99.90;;;;;;4445045;32;20478;-64
2022/03/04 03:12:35;;;;;;;1.17;1.15;;;2.30;99.90;;;;;;4437089;32;20076;-64
2022/03/04 03:15:01;;;;;;;13.30;2.72;;;2.30;99.90;;;;;;4442658;32;20134;-64
2022/03/04 03:17:27;;;;;;;3.22;1.95;;;2.30;99.90;;;;;;4444753;32;20069;-64
2022/03/04 03:19:53;;;;;;;3.10;1.35;;;2.30;99.90;;;;;;4437630;32;20152;-64
2022/03/04 03:22:19;;;;;;;0.75;0.75;;;2.20;99.90;;;;;;4444863;32;20080;-65
2022/03/04 03:24:45;;;;;;;1.67;1.52;;;2.20;99.90;;;;;;4446170;32;20070;-65
2022/03/04 03:27:10;;;;;;;1.48;1.00;;;2.20;99.90;;;;;;4435146;32;20549;-65
2022/03/04 03:29:36;;;;;;;0.95;0.95;;;2.30;99.90;;;;;;4435339;32;20081;-65
2022/03/04 03:32:02;;;;;;;2.70;1.35;;;2.20;99.90;;;;;;4440390;32;20098;-65
2022/03/04 03:34:28;;;;;;;0.40;0.40;;;2.10;99.90;;;;;;4442601;32;20618;-65
2022/03/04 03:36:53;;;;;;;1.10;1.10;;;2.10;99.90;;;;;;4444864;32;20062;-65
2022/03/04 03:39:19;;;;;;;1.73;1.15;;;2.20;99.90;;;;;;4439823;32;20462;-65
2022/03/04 03:41:44;;;;;;;0.93;0.93;;;2.30;99.90;;;;;;4432766;32;20085;-64
2022/03/04 03:44:10;;;;;;;0.93;0.93;;;2.20;99.90;;;;;;4441724;32;20069;-65
2022/03/04 03:46:35;;;;;;;1.27;1.17;;;2.10;99.90;;;;;;4444127;32;20073;-65
2022/03/04 03:49:01;;;;;;;5.72;2.87;;;2.10;99.90;;;;;;4444673;32;20528;-65
2022/03/04 03:51:26;;;;;;;0.70;0.70;;;2.10;99.90;;;;;;4438090;32;20123;-65
2022/03/04 03:53:52;;;;;;;0.60;0.60;;;2.20;99.90;;;;;;4434555;32;20064;-65
2022/03/04 03:56:17;;;;;;;1.25;1.15;;;2.20;99.90;;;;;;4440890;32;20505;-65
2022/03/04 03:58:43;;;;;;;2.03;1.30;;;2.20;99.90;;;;;;4437038;32;20426;-65
2022/03/04 04:01:09;;;;;;;3.25;1.37;;;2.20;99.90;;;;;;4434111;32;20124;-65
2022/03/04 04:03:35;;;;;;;1.70;1.42;;;2.30;99.90;;;;;;4440071;32;20500;-65
2022/03/04 04:06:01;;;;;;;3.30;1.20;;;2.40;99.90;;;;;;4442945;32;20049;-65
2022/03/04 04:08:26;;;;;;;7.32;1.77;;;2.40;99.90;;;;;;4436073;32;20087;-65
2022/03/04 04:10:52;;;;;;;1.17;1.08;;;2.40;99.90;;;;;;4441681;32;20064;-65
2022/03/04 04:13:17;;;;;;;2.62;1.65;;;2.50;99.90;;;;;;4443108;32;20082;-65
2022/03/04 04:15:42;;;;;;;38.25;2.05;;;2.50;99.90;;;;;;4445289;32;20130;-65
2022/03/04 04:18:08;;;;;;;0.60;0.60;;;2.40;99.90;;;;;;4430777;32;20100;-65
2022/03/04 04:20:35;;;;;;;0.82;0.82;;;2.40;99.90;;;;;;4440980;32;21699;-65
2022/03/04 04:23:00;;;;;;;6.53;0.70;;;2.40;99.90;;;;;;4430936;32;20533;-65
2022/03/04 04:25:26;;;;;;;0.52;0.52;;;2.40;99.90;;;;;;4437777;32;20072;-65
2022/03/04 04:27:51;;;;;;;1.40;1.30;;;2.40;99.90;;;;;;4443396;32;20072;-65
2022/03/04 04:30:17;;;;;;;0.70;0.70;;;2.50;99.90;;;;;;4443868;32;20056;-65
2022/03/04 04:32:42;;;;;;;5.22;1.30;;;2.60;99.90;;;;;;4435082;32;20066;-65
2022/03/04 04:35:08;;;;;;;0.60;0.60;;;2.70;99.90;;;;;;4430849;32;20098;-65
2022/03/04 04:37:34;;;;;;;0.43;0.43;;;2.70;99.90;;;;;;4433426;32;20073;-65
2022/03/04 04:39:59;;;;;;;0.60;0.60;;;2.70;99.90;;;;;;4430445;32;20124;-65
2022/03/04 04:42:25;;;;;;;3.55;1.65;;;2.70;99.90;;;;;;4435176;32;20069;-65
2022/03/04 04:44:50;;;;;;;1.98;1.42;;;2.70;99.90;;;;;;4442692;32;20081;-65
2022/03/04 04:47:16;;;;;;;3.60;1.60;;;2.70;99.90;;;;;;4434637;32;20073;-65
2022/03/04 04:49:41;;;;;;;0.80;0.65;;;2.70;99.90;;;;;;4438602;32;20073;-65
2022/03/04 04:52:08;;;;;;;1.87;1.25;;;2.60;99.90;;;;;;4433787;32;20072;-65
2022/03/04 04:54:35;;;;;;;0.93;0.93;;;2.60;99.90;;;;;;4436494;32;20473;-65
2022/03/04 04:57:01;;;;;;;0.73;0.73;;;2.60;99.90;;;;;;4430502;32;20065;-65
2022/03/04 04:59:26;;;;;;;5.28;0.80;;;2.50;99.90;;;;;;4437051;32;20073;-65
2022/03/04 05:01:51;;;;;;;0.60;0.60;;;2.50;99.90;;;;;;4430682;32;20081;-65
2022/03/04 05:04:17;;;;;;;0.82;0.80;;;2.50;99.90;;;;;;4439861;32;20123;-65
2022/03/04 05:06:42;;;;;;;41.28;1.37;;;2.50;99.90;;;;;;4439956;32;20086;-65
2022/03/04 05:09:08;;;;;;;2.92;0.70;;;2.50;99.90;;;;;;4432944;32;20238;-65
2022/03/04 05:11:34;;;;;;;0.88;0.88;;;2.40;99.90;;;;;;4416051;32;20089;-65
2022/03/04 05:14:00;;;;;;;4.40;2.05;;;2.30;99.90;;;;;;4433019;32;20065;-65
2022/03/04 05:16:25;;;;;;;2.62;2.25;;;2.40;99.90;;;;;;4437074;32;20443;-65
2022/03/04 05:18:51;;;;;;;0.40;0.40;;;2.50;99.90;;;;;;4434941;32;20072;-65
2022/03/04 05:21:16;;;;;;;0.62;0.62;;;2.50;99.90;;;;;;4429498;32;20104;-65
2022/03/04 05:24:13;;;;;;;0.77;0.77;;;2.50;99.90;;;;;;4439537;32;20085;-65
2022/03/04 05:26:29;;;;;;;0.60;0.60;;;2.40;99.90;;;;;;4417196;32;20529;-65
2022/03/04 05:28:55;;;;;;;0.40;0.40;;;2.30;99.90;;;;;;4439453;32;20439;-65
2022/03/04 05:31:21;;;;;;;1.45;1.00;;;2.30;99.90;;;;;;4433004;32;20623;-65
2022/03/04 05:33:47;;;;;;;0.50;0.50;;;2.30;99.90;;;;;;4430090;32;20141;-65
2022/03/04 05:36:14;;;;;;;3.55;1.85;;;2.40;99.90;;;;;;4432510;32;20065;-65
2022/03/04 05:38:39;;;;;;;2.37;1.02;;;2.40;99.90;;;;;;4431244;32;20077;-65
2022/03/04 05:41:05;;;;;;;0.70;0.70;;;2.50;99.90;;;;;;4441833;32;20061;-65
2022/03/04 05:43:31;;;;;;;0.80;0.80;;;2.50;99.90;;;;;;4431361;32;20588;-65
2022/03/04 05:45:56;;;;;;;0.85;0.82;;;2.40;99.90;;;;;;4428834;32;20065;-65
2022/03/04 05:48:21;;;;;;;0.30;0.30;;;2.40;99.90;;;;;;4439364;32;20081;-65
2022/03/04 05:50:47;;;;;;;4.60;0.90;;;2.40;99.90;;;;;;4441915;32;20132;-65
2022/03/04 05:53:13;;;;;;;0.57;0.57;;;2.30;99.90;;;;;;4442659;32;20490;-65
2022/03/04 05:55:39;;;;;;;41.30;1.23;;;2.30;99.90;;;;;;4437694;32;20069;-65
2022/03/04 05:58:05;;;;;;;0.50;0.50;;;2.20;99.90;;;;;;4428808;32;20434;-65
2022/03/04 06:00:31;;;;;;;0.77;0.77;;;2.10;99.90;;;;;;4433420;32;20097;-65
2022/03/04 06:02:57;;;;;;;0.62;0.62;;;2.10;99.90;;;;;;4431696;32;20066;-65
2022/03/04 06:05:22;;;;;;;0.73;0.73;;;2.20;99.90;;;;;;4432330;32;20074;-65
2022/03/04 06:07:48;;;;;;;0.60;0.60;;;2.20;99.90;;;;;;4428426;32;20497;-65
2022/03/04 06:10:14;;;;;;;4.37;1.67;;;2.30;99.90;;;;;;4429965;32;20417;-65
2022/03/04 06:12:40;;;;;;;1.15;0.95;;;2.30;99.90;;;;;;4431809;32;20574;-65
2022/03/04 06:15:06;;;;;;;0.50;0.50;;;2.40;99.90;;;;;;4436201;32;20089;-65
2022/03/04 06:17:31;;;;;;;0.43;0.43;;;2.40;99.90;;;;;;4418717;32;20080;-65
2022/03/04 06:19:57;;;;;;;1.60;1.00;;;2.50;99.90;;;;;;4428881;32;20065;-65
2022/03/04 06:22:22;;;;;;;5.18;1.70;;;2.50;99.90;;;;;;4436912;32;20088;-65
2022/03/04 06:24:48;;;;;;;0.40;0.40;;;2.30;99.90;;;;;;4436954;32;20509;-65
2022/03/04 06:27:14;;;;;;;0.57;0.57;;;2.30;99.90;;;;;;4418162;32;20081;-65
2022/03/04 06:29:40;;;;;;;0.68;0.68;;;2.30;99.90;;;;;;4427258;32;20540;-65
2022/03/04 06:32:07;;;;;;;0.75;0.75;;;2.20;99.90;;;;;;4408957;32;20451;-65
2022/03/04 06:34:32;;;;;;;2.17;0.88;;;2.30;99.90;;;;;;4434093;32;21135;-65
2022/03/04 06:36:59;;;;;;;5.53;1.62;;;2.30;99.90;;;;;;4417143;32;20163;-65
2022/03/04 06:39:25;;;;;;;0.43;0.43;;;2.40;99.90;;;;;;4424754;32;20065;-65
2022/03/04 06:41:51;;;;;;;0.40;0.40;;;2.40;99.90;;;;;;4434364;32;20064;-65
2022/03/04 06:44:16;;;;;;;0.52;0.52;;;2.50;99.90;;;;;;4432691;32;20077;-65
2022/03/04 06:46:42;;;;;;;1.15;1.08;;;2.50;99.90;;;;;;4439046;32;20122;-65
2022/03/04 06:49:10;;;;;;;0.85;0.82;;;2.50;99.90;;;;;;4420861;32;20089;-65
2022/03/04 06:51:37;;;;;;;0.50;0.50;;;2.50;99.90;;;;;;4430300;32;20471;-65
2022/03/04 06:54:02;;;;;;;0.40;0.40;;;2.50;99.90;;;;;;4419240;32;20153;-65
2022/03/04 06:56:28;;;;;;;0.60;0.60;;;2.60;99.90;;;;;;4425020;32;20203;-65
2022/03/04 06:58:54;;;;;;;0.95;0.90;;;2.70;99.90;;;;;;4416144;32;20411;-65
2022/03/04 07:01:19;;;;;;;0.52;0.52;;;2.80;99.90;;;;;;4418018;32;20118;-64
2022/03/04 07:03:45;;;;;;;0.43;0.43;;;2.80;99.90;;;;;;4393299;32;20137;-63
2022/03/04 07:06:10;;;;;;;0.40;0.40;;;2.80;99.90;;;;;;4407399;32;20101;-64
2022/03/04 07:08:37;;;;;;;0.40;0.40;;;3.00;99.90;;;;;;4410358;32;20121;-64
2022/03/04 07:11:03;;;;;;;0.50;0.50;;;3.00;99.90;;;;;;4405311;32;20160;-64
2022/03/04 07:13:29;;;;;;;0.40;0.40;;;3.00;99.90;;;;;;4396985;32;20160;-65
2022/03/04 07:15:55;;;;;;;0.50;0.50;;;3.00;99.90;;;;;;4409497;32;20737;-64
2022/03/04 07:18:22;;;;;;;0.50;0.50;;;3.10;99.90;;;;;;4413501;32;20222;-64
2022/03/04 07:20:48;;;;;;;0.73;0.70;;;3.30;99.90;;;;;;4418918;32;20080;-64
2022/03/04 07:23:14;;;;;;;0.60;0.60;;;3.30;99.90;;;;;;4425194;32;20068;-64
2022/03/04 07:25:40;;;;;;;0.45;0.45;;;3.30;99.90;;;;;;4424153;32;20072;-64
2022/03/04 07:28:06;;;;;;;0.50;0.50;;;3.40;99.90;;;;;;4422434;32;20092;-65
2022/03/04 07:30:32;;;;;;;0.45;0.45;;;3.40;99.90;;;;;;4425127;32;20093;-64
2022/03/04 07:32:58;;;;;;;0.40;0.40;;;3.40;99.90;;;;;;4416352;32;20084;-64
2022/03/04 07:35:24;;;;;;;0.40;0.40;;;3.40;99.90;;;;;;4418428;32;167952;-64
2022/03/04 07:37:50;;;;;;;1.70;1.50;;;3.40;99.90;;;;;;4418298;32;20571;-64
2022/03/04 07:40:15;;;;;;;0.45;0.43;;;3.50;99.90;;;;;;4398127;32;20093;-65
2022/03/04 07:42:42;;;;;;;0.50;0.50;;;3.40;99.90;;;;;;4413015;32;20089;-64
2022/03/04 07:45:09;;;;;;;1.65;1.17;;;3.50;99.90;;;;;;4420664;32;20077;-64
2022/03/04 07:47:36;;;;;;;0.70;0.70;;;3.60;99.90;;;;;;4413099;32;20159;-64
2022/03/04 07:50:06;;;;;;;1.02;0.88;;;3.60;99.90;;;;;;4412092;32;20097;-64
2022/03/04 07:52:32;;;;;;;0.40;0.40;;;3.60;99.90;;;;;;4415373;32;20228;-64
2022/03/04 07:55:00;;;;;;;0.40;0.40;;;3.60;99.90;;;;;;4406384;32;21332;-64
2022/03/04 07:57:25;;;;;;;0.37;0.37;;;3.50;99.90;;;;;;4415656;32;20069;-64
2022/03/04 07:59:51;;;;;;;0.45;0.45;;;3.50;99.90;;;;;;4409694;32;20446;-64
2022/03/04 08:02:16;;;;;;;0.40;0.40;;;3.50;99.90;;;;;;4413093;32;20145;-65
2022/03/04 08:04:42;;;;;;;3.67;2.00;;;3.60;99.90;;;;;;4414699;32;20081;-65
2022/03/04 08:07:07;;;;;;;0.47;0.47;;;3.70;99.90;;;;;;4423343;32;20069;-65
2022/03/04 08:09:33;;;;;;;1.08;0.85;;;3.70;99.90;;;;;;4415806;32;20187;-65
2022/03/04 08:11:58;;;;;;;0.47;0.47;;;3.80;99.90;;;;;;4415206;32;20794;-65
2022/03/04 08:14:24;;;;;;;1.05;0.95;;;3.70;99.90;;;;;;4406397;32;20089;-65
2022/03/04 08:16:49;;;;;;;1.40;0.80;;;3.70;99.90;;;;;;4409400;32;20104;-64
2022/03/04 08:19:14;;;;;;;0.50;0.50;;;3.90;99.90;;;;;;4408985;32;21612;-65
2022/03/04 08:21:40;;;;;;;0.40;0.40;;;3.90;99.90;;;;;;4417447;32;20591;-65
2022/03/04 08:24:06;;;;;;;4.45;0.50;;;3.80;99.90;;;;;;4408792;32;20119;-64
2022/03/04 08:26:32;;;;;;;1.85;0.88;;;3.80;99.90;;;;;;4410632;32;20600;-65
2022/03/04 08:28:57;;;;;;;0.50;0.50;;;3.90;99.90;;;;;;4402629;32;20094;-65
2022/03/04 08:31:23;;;;;;;1.10;1.00;;;3.90;99.90;;;;;;4407732;32;20130;-64
2022/03/04 08:33:48;;;;;;;1.45;1.35;;;4.00;99.90;;;;;;4408649;32;20076;-64
2022/03/04 08:36:14;;;;;;;0.40;0.40;;;4.00;99.90;;;;;;4417734;32;20064;-64
2022/03/04 08:38:40;;;;;;;0.35;0.35;;;4.10;99.90;;;;;;4416384;32;20106;-64
2022/03/04 08:41:06;;;;;;;0.47;0.47;;;4.10;99.90;;;;;;4420797;32;20616;-64
2022/03/04 08:43:34;;;;;;;0.40;0.40;;;4.20;99.90;;;;;;4389589;32;20663;-64
2022/03/04 08:46:00;;;;;;;4.85;1.85;;;4.20;99.90;;;;;;4417985;32;20196;-64
2022/03/04 08:48:25;;;;;;;0.88;0.88;;;4.40;99.90;;;;;;4408956;32;20814;-64
2022/03/04 08:50:51;;;;;;;0.40;0.40;;;4.40;99.90;;;;;;4411338;32;20350;-64
2022/03/04 08:53:16;;;;;;;1.85;1.05;;;4.50;99.90;;;;;;4403515;32;20466;-63
2022/03/04 08:55:44;;;;;;;1.90;0.52;;;4.50;99.90;;;;;;4406054;32;20088;-63
2022/03/04 08:58:10;;;;;;;0.40;0.40;;;4.40;99.90;;;;;;4405323;32;20084;-64
2022/03/04 09:00:36;;;;;;;1.23;1.05;;;4.30;99.90;;;;;;4405330;32;20088;-63
2022/03/04 09:03:01;;;;;;;0.40;0.40;;;4.50;99.90;;;;;;4392486;32;20758;-64
2022/03/04 09:05:27;;;;;;;3.20;2.05;;;4.60;99.90;;;;;;4401823;32;20088;-64
2022/03/04 09:07:53;;;;;;;0.40;0.40;;;4.60;99.90;;;;;;4405639;32;21338;-64
2022/03/04 09:10:18;;;;;;;3.40;0.85;;;4.80;99.90;;;;;;4413034;32;20192;-64
2022/03/04 09:12:44;;;;;;;0.55;0.55;;;4.90;99.90;;;;;;4403138;32;20081;-64
2022/03/04 09:15:10;;;;;;;0.47;0.47;;;5.00;99.90;;;;;;4394923;32;20658;-64
2022/03/04 09:17:35;;;;;;;0.43;0.40;;;5.00;99.90;;;;;;4405726;32;20098;-63
2022/03/04 09:20:01;;;;;;;0.55;0.55;;;4.90;99.90;;;;;;4392869;32;20198;-63
2022/03/04 09:22:26;;;;;;;0.30;0.30;;;4.80;99.90;;;;;;4400653;32;20342;-63
2022/03/04 09:24:52;;;;;;;0.55;0.55;;;4.70;99.90;;;;;;4402830;32;20088;-64
2022/03/04 09:27:18;;;;;;;0.45;0.45;;;4.60;99.90;;;;;;4408373;32;20196;-64
2022/03/04 09:29:45;;;;;;;0.47;0.47;;;4.50;99.90;;;;;;4404177;32;20231;-64
2022/03/04 09:32:11;;;;;;;0.40;0.40;;;4.50;99.90;;;;;;4412138;32;20540;-65
2022/03/04 09:34:37;;;;;;;2.10;0.73;;;4.50;99.90;;;;;;4403603;32;20113;-64
2022/03/04 09:37:03;;;;;;;0.35;0.35;;;4.50;99.90;;;;;;4408863;32;20097;-64
2022/03/04 09:39:28;;;;;;;0.30;0.30;;;4.50;99.90;;;;;;4400651;32;20158;-64
2022/03/04 09:41:54;;;;;;;7.22;1.30;;;4.50;99.90;;;;;;4401526;32;20453;-63
2022/03/04 09:44:20;;;;;;;0.50;0.50;;;4.50;99.90;;;;;;4405291;32;20163;-63
2022/03/04 09:46:45;;;;;;;0.35;0.35;;;4.60;99.90;;;;;;4408332;32;21164;-63
2022/03/04 09:49:15;;;;;;;0.32;0.32;;;4.70;99.90;;;;;;4406152;32;20093;-63
2022/03/04 09:51:41;;;;;;;0.65;0.55;;;4.80;99.90;;;;;;4402506;32;20097;-64
2022/03/04 09:54:06;;;;;;;0.80;0.55;;;4.80;99.90;;;;;;4405006;32;20241;-63
2022/03/04 09:56:32;;;;;;;0.30;0.30;;;4.90;99.90;;;;;;4397416;32;20094;-63
2022/03/04 09:58:57;;;;;;;0.30;0.30;;;4.80;99.90;;;;;;4400906;32;20101;-63
2022/03/04 10:01:23;;;;;;;0.55;0.55;;;4.70;99.90;;;;;;4403331;32;20202;-63
2022/03/04 10:03:52;;;;;;;0.37;0.37;;;4.70;99.90;;;;;;4405301;32;20141;-63
2022/03/04 10:06:19;;;;;;;0.60;0.60;;;4.80;99.90;;;;;;4400314;32;20093;-63
2022/03/04 10:08:47;;;;;;;0.52;0.52;;;4.80;99.90;;;;;;4411729;32;20105;-63
2022/03/04 10:11:31;;;;;;;0.30;0.30;;;4.80;99.90;;;;;;4383866;32;20072;-64
2022/03/04 10:14:00;;;;;;;0.30;0.30;;;4.80;99.90;;;;;;4405101;32;21135;-63
2022/03/04 10:16:42;;;;;;;0.65;0.65;;;4.90;99.90;;;;;;4387407;32;20081;-63
2022/03/04 10:19:13;;;;;;;0.70;0.70;;;5.00;99.90;;;;;;4394197;32;20092;-63
2022/03/04 10:22:00;;;;;;;0.35;0.35;;;5.00;99.90;;;;;;4413617;32;20082;-63
2022/03/04 10:24:35;;;;;;;0.40;0.40;;;5.00;99.90;;;;;;4382916;32;20135;-64
2022/03/04 10:27:07;;;;;;;0.50;0.50;;;5.00;99.90;;;;;;4404233;32;20096;-63
2022/03/04 10:29:37;;;;;;;0.55;0.55;;;4.90;99.90;;;;;;4415705;32;20900;-64
2022/03/04 10:32:09;;;;;;;0.35;0.35;;;4.90;99.90;;;;;;4398547;32;20369;-64
2022/03/04 10:34:53;;;;;;;0.40;0.40;;;4.80;99.90;;;;;;4415366;32;20611;-64
2022/03/04 10:37:40;;;;;;;0.50;0.50;;;4.80;99.90;;;;;;4417640;32;20074;-64
2022/03/04 10:40:08;;;;;;;0.77;0.77;;;4.80;99.90;;;;;;4411632;32;20073;-64
2022/03/04 10:42:55;;;;;;;1.65;0.85;;;4.90;99.90;;;;;;4424526;32;20655;-64
2022/03/04 10:45:23;;;;;;;1.08;0.98;;;4.90;99.90;;;;;;4411712;32;20105;-64
2022/03/04 10:47:56;;;;;;;0.55;0.55;;;4.90;99.90;;;;;;4422769;32;20548;-64
2022/03/04 10:50:28;;;;;;;1.02;1.00;;;4.90;99.90;;;;;;4423019;32;20508;-64
2022/03/04 10:52:58;;;;;;;0.37;0.37;;;4.80;99.90;;;;;;4427550;32;20064;-64
2022/03/04 10:55:36;;;;;;;0.40;0.40;;;4.70;99.90;;;;;;4424544;32;20072;-64
2022/03/04 10:58:06;;;;;;;0.60;0.60;;;4.60;99.90;;;;;;4417897;32;20096;-66
2022/03/04 11:00:35;;;;;;;0.60;0.60;;;4.60;99.90;;;;;;4418640;32;20443;-65
2022/03/04 11:03:01;;;;;;;0.50;0.50;;;4.60;99.90;;;;;;4415506;32;20109;-65
2022/03/04 11:05:27;;;;;;;0.40;0.40;;;4.60;99.90;;;;;;4419997;32;20113;-65
2022/03/04 11:07:53;;;;;;;0.40;0.40;;;4.60;99.90;;;;;;4421775;32;20536;-65
2022/03/04 11:10:20;;;;;;;0.30;0.30;;;4.70;99.90;;;;;;4422643;32;20233;-64
2022/03/04 11:12:50;;;;;;;0.40;0.40;;;4.80;99.90;;;;;;4406615;32;20090;-65
2022/03/04 11:15:16;;;;;;;7.45;2.33;;;4.90;99.90;;;;;;4403898;32;20093;-65
2022/03/04 11:17:43;;;;;;;0.32;0.32;;;5.10;99.90;;;;;;4402256;32;20142;-65
2022/03/04 11:20:10;;;;;;;0.62;0.60;;;5.20;99.90;;;;;;4413984;32;20783;-64
2022/03/04 11:22:39;;;;;;;0.70;0.70;;;5.20;99.90;;;;;;4421032;32;20090;-64
2022/03/04 11:25:08;;;;;;;0.55;0.55;;;5.40;99.90;;;;;;4404809;32;20093;-63
2022/03/04 11:27:39;;;;;;;0.50;0.50;;;5.30;99.90;;;;;;4424423;32;20090;-64
2022/03/04 11:30:05;;;;;;;2.05;1.48;;;5.30;99.90;;;;;;4417804;32;20101;-64
2022/03/04 11:32:31;;;;;;;0.40;0.40;;;5.20;99.90;;;;;;4424337;32;20085;-64
2022/03/04 11:34:57;;;;;;;0.30;0.30;;;5.20;99.90;;;;;;4422741;32;20655;-63
2022/03/04 11:37:23;;;;;;;0.25;0.25;;;5.30;99.90;;;;;;4424222;32;20555;-63
2022/03/04 11:40:44;;;;;;;0.40;0.40;;;5.40;99.90;;;;;;4411845;32;20524;-63
2022/03/04 11:42:57;;;;;;;0.30;0.30;;;5.40;99.90;;;;;;4401458;32;20084;-64
2022/03/04 11:45:32;;;;;;;0.40;0.40;;;5.40;99.90;;;;;;4421114;32;20094;-64
2022/03/04 11:48:04;;;;;;;0.30;0.30;;;5.50;99.90;;;;;;4417925;32;20455;-63
2022/03/04 11:50:32;;;;;;;0.40;0.40;;;5.50;99.90;;;;;;4418211;32;20069;-63
2022/03/04 11:53:16;;;;;;;0.37;0.37;;;5.50;99.90;;;;;;4419691;32;20084;-63
2022/03/04 11:56:11;;;;;;;0.55;0.52;;;5.50;99.90;;;;;;4414006;32;20486;-64
2022/03/04 11:58:57;;;;;;;0.40;0.40;;;5.80;99.90;;;;;;4394809;32;21330;-64
2022/03/04 12:01:28;;;;;;;0.50;0.50;;;6.20;99.90;;;;;;4405615;32;20092;-63
2022/03/04 12:04:11;;;;;;;0.40;0.40;;;6.30;99.90;;;;;;4404546;32;20113;-63
2022/03/04 12:06:38;;;;;;;0.20;0.20;;;6.30;99.90;;;;;;4403149;32;20224;-63
2022/03/04 12:09:26;;;;;;;0.37;0.37;;;6.10;99.90;;;;;;4395308;32;20142;-63
2022/03/04 12:12:13;;;;;;;0.47;0.47;;;6.00;99.90;;;;;;4404439;32;20093;-65
2022/03/04 12:14:46;;;;;;;0.50;0.50;;;5.90;99.90;;;;;;4401305;32;20563;-64
2022/03/04 12:17:12;;;;;;;0.30;0.30;;;5.80;99.90;;;;;;4413117;32;20599;-64
2022/03/04 12:19:38;;;;;;;0.60;0.60;;;5.80;99.90;;;;;;4414760;32;20181;-64
2022/03/04 12:22:06;;;;;;;0.40;0.40;;;5.70;99.90;;;;;;4420390;32;20573;-64
2022/03/04 12:24:34;;;;;;;0.40;0.40;;;5.70;99.90;;;;;;4419256;32;20089;-64
2022/03/04 12:27:01;;;;;;;0.88;0.62;;;5.60;99.90;;;;;;4404439;32;20065;-64
2022/03/04 12:29:44;;;;;;;1.10;1.00;;;5.70;99.90;;;;;;4423169;32;20156;-64
2022/03/04 12:32:11;;;;;;;0.62;0.62;;;5.70;99.90;;;;;;4424342;32;20093;-65
2022/03/04 12:34:46;;;;;;;0.68;0.57;;;5.70;99.90;;;;;;4420494;32;20490;-64
2022/03/04 12:37:14;;;;;;;0.52;0.45;;;5.70;99.90;;;;;;4422811;32;20068;-65
2022/03/04 12:39:40;;;;;;;0.40;0.40;;;5.70;99.90;;;;;;4422168;32;20100;-65
2022/03/04 12:42:07;;;;;;;0.60;0.60;;;5.90;99.90;;;;;;4387688;32;20130;-65
2022/03/04 12:44:34;;;;;;;0.43;0.43;;;6.00;99.90;;;;;;4414052;32;20485;-65
2022/03/04 12:47:00;;;;;;;0.40;0.40;;;6.00;99.90;;;;;;4416638;32;21496;-63
2022/03/04 12:49:28;;;;;;;1.02;0.62;;;6.00;99.90;;;;;;4415758;32;20081;-63
2022/03/04 12:51:54;;;;;;;0.40;0.40;;;6.10;99.90;;;;;;4400538;32;20859;-63
2022/03/04 12:54:25;;;;;;;0.37;0.37;;;6.30;99.90;;;;;;4418468;32;20167;-64
2022/03/04 12:56:52;;;;;;;0.30;0.30;;;6.50;99.90;;;;;;4422499;32;20190;-64